Arminto, Wyoming
Current Conditions -  °F | °C
As of 6:53 PM on Saturday 20 Dec 2014 (Local Time) from KCPR Reporting Station
Clear Clear  
Wind Chill: 21°   Ceiling: Unl
Heat Index: 32°   Visibility: 10mi
Dew Point: 26°   Wind: 16mph
Humidity: 79%   Direction: 220°SW
Pressure: 29.87"   Gusts: NA
Location:  43.18°N, 107.26°W
Report Text: KCPR 210153Z 22014KT 10SM CLR 00/M03 A2987 RMK AO2 SLP131 T00001033
Loading
Personal Weather Stations






























Interactive Weather Map New forecast layout! Learn more

10-Day Weather Forecast

Advertisements
Track Severe Weather on mobile